Gustave, South Dakota
Current Conditions -  °F | °C
As of 3:51 AM on Saturday 25 Oct 2014 (Local Time) from KBHK Reporting Station
Clear Clear  
Wind Chill: 30°   Ceiling: Unl
Heat Index: 34°   Visibility: 10mi
Dew Point: 28°   Wind: 5mph
Humidity: 79%   Direction: 130°SE
Pressure: 30.14"   Gusts: NA
Location:  45.6592°N, 103.944°W
Report Text: KBHK 250951Z AUTO 13004KT 10SM CLR 01/M02 A3014 RMK AO2 SLP214 T00111022
Loading
Personal Weather Stations






























Interactive Weather Map
Tropical Storm Tracking
New forecast layout! Learn more

10-Day Weather Forecast

Advertisements
Track Severe Weather on mobile